METAR Data
IDs: Format: Raw Decoded Include TAF

Data at: 1329 UTC 26 Feb 2021

EDDF 261320Z 02012KT 9999 -RA FEW008 SCT025 BKN046 07/03 Q1032 NOSIG